createdAt,value
2022-09-30T00:01:40.804Z,7.17
2022-09-30T00:04:10.078Z,7.00
2022-09-30T00:06:38.567Z,6.70
2022-09-30T00:09:08.439Z,6.73
2022-09-30T00:11:39.457Z,11.00
2022-09-30T00:14:08.409Z,8.73
2022-09-30T00:16:37.965Z,7.33
2022-09-30T00:19:06.772Z,7.27
2022-09-30T00:21:35.376Z,7.37
2022-09-30T00:24:04.140Z,7.63
2022-09-30T00:26:34.473Z,7.87
2022-09-30T00:29:02.948Z,7.57
2022-09-30T00:31:32.401Z,7.37
2022-09-30T00:34:11.126Z,7.43
2022-09-30T00:36:41.433Z,7.30
2022-09-30T00:39:10.911Z,8.00
2022-09-30T00:41:40.846Z,7.67
2022-09-30T00:44:27.652Z,7.77
2022-09-30T00:46:57.332Z,7.47
2022-09-30T00:49:27.263Z,7.83
2022-09-30T00:51:57.323Z,8.17
2022-09-30T00:54:28.100Z,8.30
2022-09-30T00:56:59.600Z,7.93
2022-09-30T00:59:29.490Z,7.80
2022-09-30T01:01:58.077Z,9.47
2022-09-30T01:04:27.092Z,8.57
2022-09-30T01:06:55.555Z,9.03
2022-09-30T01:09:24.047Z,8.40
2022-09-30T01:11:52.500Z,8.33
2022-09-30T01:14:24.084Z,8.10
2022-09-30T01:16:57.378Z,8.93
2022-09-30T01:19:35.083Z,7.80
2022-09-30T01:22:21.179Z,8.20
2022-09-30T01:25:07.182Z,8.37
2022-09-30T01:27:53.465Z,8.80
2022-09-30T01:30:24.795Z,8.23
2022-09-30T01:33:04.556Z,9.27
2022-09-30T01:35:40.222Z,8.10
2022-09-30T01:38:14.666Z,8.10
2022-09-30T01:40:46.071Z,8.47
2022-09-30T01:43:16.286Z,7.93
2022-09-30T01:45:45.734Z,8.37
2022-09-30T01:48:20.578Z,7.73
2022-09-30T01:50:52.034Z,8.50
2022-09-30T01:53:26.673Z,7.53
2022-09-30T01:55:57.240Z,7.83
2022-09-30T01:58:30.851Z,7.87
2022-09-30T02:01:01.088Z,7.93
2022-09-30T02:03:33.570Z,8.07
2022-09-30T02:06:04.234Z,8.37
2022-09-30T02:08:37.432Z,7.77
2022-09-30T02:11:07.886Z,7.30
2022-09-30T02:13:39.099Z,7.67
2022-09-30T02:16:13.110Z,8.17
2022-09-30T02:18:44.943Z,7.87
2022-09-30T02:21:16.555Z,8.80
2022-09-30T02:23:46.584Z,7.93
2022-09-30T02:26:16.711Z,9.27
2022-09-30T02:28:47.269Z,7.90
2022-09-30T02:31:16.410Z,7.80
2022-09-30T02:33:48.471Z,7.87
2022-09-30T02:36:19.715Z,8.10
2022-09-30T02:38:50.586Z,7.80
2022-09-30T02:41:21.812Z,8.67
2022-09-30T02:43:50.333Z,8.17
2022-09-30T02:46:25.147Z,7.83
2022-09-30T02:49:00.154Z,8.60
2022-09-30T02:51:31.816Z,8.37
2022-09-30T02:54:18.260Z,7.93
2022-09-30T02:56:50.881Z,7.93
2022-09-30T02:59:19.406Z,7.83
2022-09-30T03:01:47.776Z,7.63
2022-09-30T03:04:19.772Z,7.37
2022-09-30T03:06:48.926Z,7.63
2022-09-30T03:09:17.444Z,9.00
2022-09-30T03:11:47.776Z,7.57
2022-09-30T03:14:24.278Z,7.23
2022-09-30T03:17:10.444Z,8.00
2022-09-30T03:19:49.269Z,7.77
2022-09-30T03:22:31.492Z,7.50
2022-09-30T03:25:06.750Z,7.50
2022-09-30T03:27:40.356Z,7.67
2022-09-30T03:30:09.845Z,7.80
2022-09-30T03:32:49.054Z,7.73
2022-09-30T03:35:23.317Z,7.40
2022-09-30T03:37:56.895Z,7.67
2022-09-30T03:40:28.747Z,7.23
2022-09-30T03:42:59.538Z,7.10
2022-09-30T03:45:31.744Z,7.97
2022-09-30T03:48:01.691Z,7.33
2022-09-30T03:50:32.729Z,7.37
2022-09-30T03:53:01.915Z,7.97
2022-09-30T03:55:30.441Z,6.93
2022-09-30T03:57:59.137Z,7.87
2022-09-30T04:00:27.937Z,7.47
2022-09-30T04:02:57.981Z,7.40
2022-09-30T04:05:26.459Z,7.47
2022-09-30T04:07:56.186Z,9.47
2022-09-30T04:10:24.554Z,8.53
2022-09-30T04:12:55.338Z,7.90
2022-09-30T04:15:23.666Z,7.33
2022-09-30T04:17:52.082Z,7.47
2022-09-30T04:20:20.444Z,8.07
2022-09-30T04:22:48.742Z,7.20
2022-09-30T04:25:18.475Z,7.93
2022-09-30T04:27:46.706Z,7.80
2022-09-30T04:30:15.055Z,7.10
2022-09-30T04:32:45.445Z,7.50
2022-09-30T04:35:13.896Z,7.40
2022-09-30T04:37:45.423Z,7.33
2022-09-30T04:40:14.326Z,8.13
2022-09-30T04:42:44.429Z,8.87
2022-09-30T04:45:13.271Z,8.17
2022-09-30T04:47:45.065Z,7.20
2022-09-30T04:50:14.036Z,6.80
2022-09-30T04:52:44.487Z,10.20
2022-09-30T04:55:12.908Z,9.20
2022-09-30T04:57:41.163Z,10.67
2022-09-30T05:00:12.122Z,12.33
2022-09-30T05:02:40.329Z,12.80
2022-09-30T05:05:09.224Z,10.67
2022-09-30T05:07:37.478Z,9.33
2022-09-30T05:10:06.043Z,10.07
2022-09-30T05:12:34.241Z,11.37
2022-09-30T05:15:02.589Z,11.47
2022-09-30T05:17:32.995Z,8.37
2022-09-30T05:20:01.801Z,10.43
2022-09-30T05:22:30.610Z,9.20
2022-09-30T05:24:58.891Z,8.03
2022-09-30T05:27:27.754Z,10.33
2022-09-30T05:29:56.107Z,16.97
2022-09-30T05:32:24.719Z,7.37
2022-09-30T05:34:55.610Z,8.00
2022-09-30T05:37:23.829Z,8.70
2022-09-30T05:39:55.200Z,8.30
2022-09-30T05:42:23.435Z,7.73
2022-09-30T05:44:51.814Z,7.50
2022-09-30T05:47:20.049Z,8.27
2022-09-30T05:49:50.382Z,10.60
2022-09-30T05:52:22.824Z,8.37
2022-09-30T05:54:51.293Z,9.53
2022-09-30T05:57:19.626Z,10.43
2022-09-30T05:59:48.322Z,10.43
2022-09-30T06:02:16.740Z,10.73
2022-09-30T06:04:45.095Z,8.47
2022-09-30T06:07:13.860Z,7.80
2022-09-30T06:09:43.715Z,8.57
2022-09-30T06:12:12.028Z,8.50
2022-09-30T06:14:40.298Z,7.67
2022-09-30T06:17:08.668Z,10.07
2022-09-30T06:19:36.936Z,10.03
2022-09-30T06:22:05.180Z,7.90
2022-09-30T06:24:33.463Z,10.80
2022-09-30T06:27:03.073Z,9.37
2022-09-30T06:29:31.410Z,10.30
2022-09-30T06:31:59.763Z,9.40
2022-09-30T06:34:28.083Z,9.87
2022-09-30T06:36:56.390Z,11.70
2022-09-30T06:39:26.936Z,11.60
2022-09-30T06:41:56.324Z,9.60
2022-09-30T06:44:25.942Z,9.40
2022-09-30T06:46:55.185Z,8.53
2022-09-30T06:49:23.715Z,8.20
2022-09-30T06:51:52.254Z,10.10
2022-09-30T06:54:21.940Z,9.20
2022-09-30T06:56:52.983Z,10.73
2022-09-30T06:59:21.464Z,10.53
2022-09-30T07:01:51.700Z,9.97
2022-09-30T07:04:20.162Z,8.73
2022-09-30T07:06:48.535Z,11.17
2022-09-30T07:09:17.971Z,9.27
2022-09-30T07:11:46.469Z,10.23
2022-09-30T07:14:14.831Z,10.40
2022-09-30T07:16:44.758Z,10.67
2022-09-30T07:19:14.853Z,12.63
2022-09-30T07:21:43.308Z,11.63
2022-09-30T07:24:12.023Z,10.97
2022-09-30T07:26:41.691Z,9.80
2022-09-30T07:29:10.191Z,9.40
2022-09-30T07:31:38.782Z,9.83
2022-09-30T07:34:08.352Z,12.10
2022-09-30T07:36:38.869Z,10.57
2022-09-30T07:39:08.864Z,9.97
2022-09-30T07:41:39.042Z,10.20
2022-09-30T07:44:09.568Z,11.43
2022-09-30T07:46:40.604Z,10.30
2022-09-30T07:49:09.766Z,10.43
2022-09-30T07:51:40.390Z,11.87
2022-09-30T07:54:10.176Z,14.13
2022-09-30T07:59:29.078Z,13.33
2022-09-30T08:01:57.630Z,11.47
2022-09-30T08:04:27.062Z,13.17
2022-09-30T08:06:58.574Z,10.80
2022-09-30T08:09:28.151Z,10.80
2022-09-30T08:11:56.920Z,10.70
2022-09-30T08:14:26.589Z,12.40
2022-09-30T08:16:55.982Z,12.40
2022-09-30T08:19:25.058Z,11.23
2022-09-30T08:21:54.315Z,12.60
2022-09-30T08:24:24.645Z,11.80
2022-09-30T08:26:53.758Z,12.57
2022-09-30T08:29:43.028Z,12.10
2022-09-30T08:32:10.761Z,12.93
2022-09-30T08:34:39.160Z,11.20
2022-09-30T08:37:09.713Z,11.67
2022-09-30T08:39:40.026Z,11.80
2022-09-30T08:42:35.529Z,12.83
2022-09-30T08:45:06.439Z,12.20
2022-09-30T08:47:39.964Z,11.30
2022-09-30T08:50:12.905Z,12.47
2022-09-30T08:52:49.110Z,11.00
2022-09-30T08:55:21.166Z,12.10
2022-09-30T08:57:49.517Z,11.30
2022-09-30T09:00:18.912Z,14.30
2022-09-30T09:02:50.361Z,10.50
2022-09-30T09:05:22.065Z,10.83
2022-09-30T09:07:54.235Z,11.93
2022-09-30T09:10:29.581Z,10.50
2022-09-30T09:13:01.077Z,10.07
2022-09-30T09:15:34.244Z,10.47
2022-09-30T09:18:24.981Z,8.73
2022-09-30T09:20:56.226Z,8.77
2022-09-30T09:23:24.843Z,11.50
2022-09-30T09:25:56.039Z,10.63
2022-09-30T09:28:33.773Z,14.20
2022-09-30T09:31:02.622Z,10.37
2022-09-30T09:33:31.798Z,10.03
2022-09-30T09:36:05.797Z,12.83
2022-09-30T09:38:37.036Z,10.60
2022-09-30T09:41:11.551Z,9.80
2022-09-30T09:43:52.256Z,8.00
2022-09-30T09:46:24.843Z,8.40
2022-09-30T09:49:18.119Z,9.80
2022-09-30T09:51:48.902Z,9.40
2022-09-30T09:54:22.600Z,10.83
2022-09-30T09:56:56.265Z,10.10
2022-09-30T09:59:24.830Z,9.85
2022-09-30T10:01:54.341Z,12.38
2022-09-30T10:04:25.908Z,9.65
2022-09-30T10:06:55.538Z,6.45
2022-09-30T10:09:28.469Z,13.02
2022-09-30T10:12:15.295Z,11.95
2022-09-30T10:14:51.164Z,9.55
2022-09-30T10:17:20.839Z,12.02
2022-09-30T10:19:52.465Z,6.80
2022-09-30T10:22:21.678Z,8.90
2022-09-30T10:24:50.256Z,7.38
2022-09-30T10:27:29.330Z,6.88
2022-09-30T10:29:59.144Z,10.48
2022-09-30T10:32:28.029Z,8.43
2022-09-30T10:34:57.611Z,8.25
2022-09-30T10:37:26.499Z,6.43
2022-09-30T10:39:58.099Z,7.60
2022-09-30T10:42:27.959Z,7.75
2022-09-30T10:44:57.911Z,10.80
2022-09-30T10:47:32.560Z,6.70
2022-09-30T10:50:05.695Z,7.00
2022-09-30T10:52:36.860Z,7.55
2022-09-30T10:55:14.632Z,8.88
2022-09-30T10:57:45.490Z,7.68
2022-09-30T11:00:17.383Z,9.20
2022-09-30T11:02:51.802Z,7.53
2022-09-30T11:05:24.922Z,10.07
2022-09-30T11:07:55.847Z,7.03
2022-09-30T11:10:33.564Z,7.93
2022-09-30T11:13:04.622Z,7.13
2022-09-30T11:15:35.826Z,8.05
2022-09-30T11:18:07.358Z,8.35
2022-09-30T11:20:40.941Z,9.32
2022-09-30T11:23:14.726Z,9.00
2022-09-30T11:25:47.046Z,8.73
2022-09-30T11:28:25.023Z,8.55
2022-09-30T11:30:58.480Z,9.13
2022-09-30T11:33:36.742Z,7.57
2022-09-30T11:36:10.226Z,7.70
2022-09-30T11:38:54.248Z,7.57
2022-09-30T11:41:24.924Z,7.57
2022-09-30T11:43:58.093Z,7.13
2022-09-30T11:46:33.239Z,8.73
2022-09-30T11:49:08.670Z,9.98
2022-09-30T11:51:40.392Z,9.40
2022-09-30T11:54:20.689Z,6.13
2022-09-30T11:56:53.032Z,6.32
2022-09-30T11:59:24.099Z,8.15
2022-09-30T12:01:54.521Z,7.57
2022-09-30T12:04:29.657Z,5.35
2022-09-30T12:07:00.170Z,5.38
2022-09-30T12:09:29.797Z,7.22
2022-09-30T12:12:00.770Z,5.13
2022-09-30T12:14:33.147Z,6.03
2022-09-30T12:17:03.580Z,5.70
2022-09-30T12:19:36.281Z,5.97
2022-09-30T12:22:07.523Z,7.95
2022-09-30T12:24:38.024Z,5.13
2022-09-30T12:27:07.022Z,6.25
2022-09-30T12:29:54.941Z,5.68
2022-09-30T12:32:28.444Z,5.53
2022-09-30T12:35:03.805Z,5.90
2022-09-30T12:37:50.064Z,6.10
2022-09-30T12:40:23.016Z,6.70
2022-09-30T12:43:10.990Z,6.03
2022-09-30T12:45:54.970Z,6.18
2022-09-30T12:48:25.381Z,7.35
2022-09-30T12:50:57.633Z,6.40
2022-09-30T12:53:28.114Z,7.22
2022-09-30T12:55:56.818Z,6.45
2022-09-30T12:58:30.570Z,7.82
2022-09-30T13:01:05.652Z,8.60
2022-09-30T13:03:46.864Z,8.20
2022-09-30T13:06:20.875Z,6.70
2022-09-30T13:08:50.940Z,6.85
2022-09-30T13:11:34.422Z,7.05
2022-09-30T13:14:05.643Z,7.95
2022-09-30T13:16:55.039Z,8.02
2022-09-30T13:19:33.769Z,6.60
2022-09-30T13:22:20.667Z,7.07
2022-09-30T13:25:06.963Z,7.63
2022-09-30T13:27:35.715Z,6.70
2022-09-30T13:30:05.215Z,7.40
2022-09-30T13:32:34.945Z,6.93
2022-09-30T13:35:03.298Z,6.97
2022-09-30T13:37:39.364Z,7.53
2022-09-30T13:40:16.352Z,7.00
2022-09-30T13:42:48.034Z,9.00
2022-09-30T13:45:19.374Z,7.10
2022-09-30T13:47:50.685Z,8.33
2022-09-30T13:50:21.160Z,7.87
2022-09-30T13:52:53.211Z,7.93
2022-09-30T13:55:26.413Z,7.73
2022-09-30T13:58:02.551Z,11.57
2022-09-30T14:00:36.569Z,8.13
2022-09-30T14:03:21.428Z,9.33
2022-09-30T14:05:54.383Z,7.30
2022-09-30T14:08:37.580Z,10.07
2022-09-30T14:11:13.733Z,6.83
2022-09-30T14:13:50.356Z,8.20
2022-09-30T14:16:37.318Z,8.33
2022-09-30T14:19:13.598Z,8.20
2022-09-30T14:21:45.153Z,7.77
2022-09-30T14:24:16.295Z,8.67
2022-09-30T14:27:01.079Z,8.70
2022-09-30T14:29:34.799Z,7.63
2022-09-30T14:32:11.523Z,6.90
2022-09-30T14:34:40.407Z,9.40
2022-09-30T14:37:17.726Z,6.77
2022-09-30T14:39:48.391Z,6.37
2022-09-30T14:42:24.562Z,6.70
2022-09-30T14:44:54.305Z,8.07
2022-09-30T14:47:23.439Z,5.90
2022-09-30T14:49:52.000Z,5.53
2022-09-30T14:52:37.346Z,5.57
2022-09-30T14:55:06.294Z,6.77
2022-09-30T14:57:36.411Z,5.50
2022-09-30T15:00:26.076Z,6.93
2022-09-30T15:02:55.106Z,5.67
2022-09-30T15:05:23.622Z,6.00
2022-09-30T15:07:52.210Z,5.53
2022-09-30T15:10:22.268Z,9.30
2022-09-30T15:12:53.916Z,5.73
2022-09-30T15:15:29.967Z,5.83
2022-09-30T15:17:58.476Z,8.03
2022-09-30T15:20:30.308Z,4.77
2022-09-30T15:23:00.061Z,4.50
2022-09-30T15:25:29.565Z,5.63
2022-09-30T15:28:00.238Z,4.70
2022-09-30T15:30:30.377Z,8.03
2022-09-30T15:32:59.831Z,5.27
2022-09-30T15:35:28.798Z,5.50
2022-09-30T15:38:07.647Z,5.90
2022-09-30T15:40:50.278Z,5.50
2022-09-30T15:43:35.925Z,6.13
2022-09-30T15:46:27.646Z,7.17
2022-09-30T15:48:56.914Z,7.43
2022-09-30T15:51:36.373Z,4.60
2022-09-30T15:54:25.115Z,4.93
2022-09-30T15:56:53.641Z,4.70
2022-09-30T15:59:23.870Z,6.50
2022-09-30T16:01:53.484Z,6.40
2022-09-30T16:04:26.410Z,5.30
2022-09-30T16:06:56.708Z,4.90
2022-09-30T16:09:30.729Z,4.77
2022-09-30T16:12:01.209Z,5.33
2022-09-30T16:14:32.328Z,5.93
2022-09-30T16:17:02.207Z,7.53
2022-09-30T16:19:31.097Z,6.90
2022-09-30T16:22:02.360Z,5.77
2022-09-30T16:24:49.519Z,5.20
2022-09-30T16:27:22.658Z,4.80
2022-09-30T16:29:52.395Z,7.70
2022-09-30T16:32:21.122Z,5.13
2022-09-30T16:34:49.799Z,9.47
2022-09-30T16:37:20.314Z,4.87
2022-09-30T16:39:48.752Z,6.47
2022-09-30T16:42:17.976Z,5.83
2022-09-30T16:44:46.250Z,4.50
2022-09-30T16:47:17.154Z,6.67
2022-09-30T16:49:47.342Z,5.67
2022-09-30T16:52:16.222Z,5.57
2022-09-30T16:54:44.722Z,5.40
2022-09-30T16:57:19.529Z,7.67
2022-09-30T16:59:47.765Z,6.27
2022-09-30T17:02:17.494Z,7.17
2022-09-30T17:04:46.781Z,6.90
2022-09-30T17:07:15.334Z,8.13
2022-09-30T17:09:44.242Z,7.43
2022-09-30T17:12:13.310Z,5.63
2022-09-30T17:14:43.357Z,5.13
2022-09-30T17:17:13.730Z,6.00
2022-09-30T17:19:43.602Z,7.43
2022-09-30T17:22:12.071Z,7.73
2022-09-30T17:24:40.319Z,9.47
2022-09-30T17:27:08.662Z,8.47
2022-09-30T17:29:41.742Z,7.33
2022-09-30T17:32:10.626Z,11.07
2022-09-30T17:34:39.936Z,11.53
2022-09-30T17:37:09.716Z,11.50
2022-09-30T17:39:38.034Z,10.13
2022-09-30T17:42:23.795Z,8.20
2022-09-30T17:44:52.284Z,6.70
2022-09-30T17:47:21.269Z,7.30
2022-09-30T17:49:49.544Z,8.13
2022-09-30T17:52:19.225Z,6.50
2022-09-30T17:54:52.058Z,7.20
2022-09-30T17:57:20.834Z,6.20
2022-09-30T17:59:49.127Z,6.83
2022-09-30T18:02:18.156Z,6.93
2022-09-30T18:04:47.405Z,7.03
2022-09-30T18:07:15.761Z,24.97
2022-09-30T18:09:45.392Z,9.83
2022-09-30T18:12:13.762Z,8.67
2022-09-30T18:14:43.898Z,10.27
2022-09-30T18:17:12.358Z,11.07
2022-09-30T18:19:40.680Z,10.47
2022-09-30T18:22:08.973Z,7.87
2022-09-30T18:24:55.211Z,8.40
2022-09-30T18:27:25.920Z,8.77
2022-09-30T18:29:54.338Z,14.27
2022-09-30T18:32:22.720Z,16.57
2022-09-30T18:34:51.102Z,11.83
2022-09-30T18:37:20.461Z,7.77
2022-09-30T18:39:48.847Z,9.53
2022-09-30T18:42:17.473Z,12.33
2022-09-30T18:44:47.275Z,10.40
2022-09-30T18:47:17.474Z,10.57
2022-09-30T18:49:45.820Z,10.43
2022-09-30T18:52:14.449Z,9.83
2022-09-30T18:54:42.887Z,9.63
2022-09-30T18:57:11.176Z,10.27
2022-09-30T18:59:39.513Z,9.70
2022-09-30T19:02:09.725Z,9.40
2022-09-30T19:04:38.053Z,7.53
2022-09-30T19:07:06.369Z,7.53
2022-09-30T19:09:34.616Z,9.40
2022-09-30T19:12:03.282Z,7.23
2022-09-30T19:14:31.726Z,7.57
2022-09-30T19:17:00.134Z,7.50
2022-09-30T19:19:30.271Z,8.33
2022-09-30T19:22:01.314Z,8.60
2022-09-30T19:24:29.537Z,8.83
2022-09-30T19:26:57.884Z,7.03
2022-09-30T19:29:26.218Z,9.53
2022-09-30T19:31:54.643Z,9.30
2022-09-30T19:34:30.818Z,10.67
2022-09-30T19:37:02.146Z,9.63
2022-09-30T19:39:42.605Z,10.73
2022-09-30T19:42:14.298Z,8.43
2022-09-30T19:44:42.981Z,8.43
2022-09-30T19:47:11.409Z,8.73
2022-09-30T19:49:39.791Z,7.30
2022-09-30T19:52:19.966Z,7.63
2022-09-30T19:54:50.828Z,7.10
2022-09-30T19:57:19.246Z,7.00
2022-09-30T19:59:47.612Z,6.90
2022-09-30T20:02:16.015Z,8.30
2022-09-30T20:04:45.447Z,6.90
2022-09-30T20:07:16.000Z,6.60
2022-09-30T20:09:46.595Z,6.90
2022-09-30T20:12:15.040Z,6.63
2022-09-30T20:15:01.040Z,7.13
2022-09-30T20:17:30.258Z,6.47
2022-09-30T20:20:16.258Z,7.17
2022-09-30T20:22:47.200Z,6.80
2022-09-30T20:25:16.159Z,8.03
2022-09-30T20:27:51.137Z,11.10
2022-09-30T20:30:20.806Z,9.60
2022-09-30T20:32:49.126Z,8.50
2022-09-30T20:35:17.458Z,6.50
2022-09-30T20:37:47.736Z,7.27
2022-09-30T20:40:16.069Z,6.73
2022-09-30T20:42:44.443Z,7.27
2022-09-30T20:45:13.398Z,7.30
2022-09-30T20:47:43.954Z,8.07
2022-09-30T20:50:12.762Z,7.17
2022-09-30T20:52:41.043Z,7.33
2022-09-30T20:55:10.946Z,13.97
2022-09-30T20:57:39.426Z,8.47
2022-09-30T21:00:08.459Z,6.53
2022-09-30T21:02:36.788Z,6.77
2022-09-30T21:05:05.365Z,5.60
2022-09-30T21:07:34.138Z,6.57
2022-09-30T21:10:02.517Z,6.33
2022-09-30T21:12:33.025Z,6.00
2022-09-30T21:15:01.441Z,6.87
2022-09-30T21:17:30.936Z,7.47
2022-09-30T21:19:59.656Z,9.30
2022-09-30T21:22:29.024Z,6.77
2022-09-30T21:24:57.293Z,8.77
2022-09-30T21:27:25.581Z,5.80
2022-09-30T21:29:55.316Z,5.80
2022-09-30T21:32:23.622Z,8.10
2022-09-30T21:34:53.006Z,6.90
2022-09-30T21:37:21.521Z,5.90
2022-09-30T21:39:49.822Z,5.67
2022-09-30T21:42:18.088Z,5.67
2022-09-30T21:44:46.371Z,8.20
2022-09-30T21:47:16.202Z,5.70
2022-09-30T21:49:44.479Z,5.33
2022-09-30T21:52:12.742Z,6.13
2022-09-30T21:54:41.301Z,5.47
2022-09-30T21:57:09.575Z,5.40
2022-09-30T21:59:46.324Z,6.50
2022-09-30T22:02:17.257Z,6.17
2022-09-30T22:04:45.662Z,6.53
2022-09-30T22:07:15.405Z,5.03
2022-09-30T22:09:43.845Z,4.57
2022-09-30T22:12:12.203Z,6.17
2022-09-30T22:14:40.780Z,5.70
2022-09-30T22:17:10.296Z,5.43
2022-09-30T22:19:39.998Z,4.30
2022-09-30T22:22:08.257Z,4.80
2022-09-30T22:24:37.123Z,4.90
2022-09-30T22:27:07.495Z,4.83
2022-09-30T22:29:36.168Z,4.17
2022-09-30T22:32:04.649Z,4.97
2022-09-30T22:34:51.173Z,6.33
2022-09-30T22:37:38.751Z,4.57
2022-09-30T22:40:08.798Z,4.67
2022-09-30T22:42:37.120Z,4.63
2022-09-30T22:45:05.542Z,5.23
2022-09-30T22:47:33.862Z,4.67
2022-09-30T22:50:02.824Z,4.37
2022-09-30T22:52:32.978Z,3.87
2022-09-30T22:55:01.297Z,5.10
2022-09-30T22:57:31.031Z,4.03
2022-09-30T22:59:59.725Z,4.27
2022-09-30T23:02:28.122Z,4.77
2022-09-30T23:04:56.457Z,4.23
2022-09-30T23:07:24.840Z,5.17
2022-09-30T23:09:54.545Z,3.43
2022-09-30T23:12:23.651Z,3.57
2022-09-30T23:14:53.726Z,5.07
2022-09-30T23:17:22.100Z,3.73
2022-09-30T23:19:50.425Z,3.80
2022-09-30T23:22:19.904Z,3.90
2022-09-30T23:24:48.169Z,4.10
2022-09-30T23:27:17.915Z,3.67
2022-09-30T23:29:46.259Z,5.40
2022-09-30T23:32:14.708Z,3.60
2022-09-30T23:34:43.304Z,3.33
2022-09-30T23:37:11.687Z,3.50
2022-09-30T23:39:40.995Z,3.50
2022-09-30T23:42:09.257Z,3.70
2022-09-30T23:44:39.099Z,4.23
2022-09-30T23:47:19.451Z,3.40
2022-09-30T23:49:47.877Z,3.47
2022-09-30T23:52:17.460Z,5.07
2022-09-30T23:54:45.924Z,4.30
2022-09-30T23:57:14.210Z,3.70
2022-09-30T23:59:44.031Z,3.23
